sensor_id;sensor_type;location;lat;lon;timestamp;temperature;humidity
44863;DHT22;30597;49.628;10.850;2023-07-22T00:00:46;25.50;50.10
44863;DHT22;30597;49.628;10.850;2023-07-22T00:03:12;25.50;50.10
44863;DHT22;30597;49.628;10.850;2023-07-22T00:05:39;25.50;50.20
44863;DHT22;30597;49.628;10.850;2023-07-22T00:08:04;25.50;50.40
44863;DHT22;30597;49.628;10.850;2023-07-22T00:10:30;25.60;50.20
44863;DHT22;30597;49.628;10.850;2023-07-22T00:12:55;25.60;50.20
44863;DHT22;30597;49.628;10.850;2023-07-22T00:15:21;25.40;50.00
44863;DHT22;30597;49.628;10.850;2023-07-22T00:17:49;25.40;50.10
44863;DHT22;30597;49.628;10.850;2023-07-22T00:20:15;25.50;50.10
44863;DHT22;30597;49.628;10.850;2023-07-22T00:22:42;25.40;50.00
44863;DHT22;30597;49.628;10.850;2023-07-22T00:25:11;25.50;50.10
44863;DHT22;30597;49.628;10.850;2023-07-22T00:27:38;25.40;50.20
44863;DHT22;30597;49.628;10.850;2023-07-22T00:30:06;25.50;50.30
44863;DHT22;30597;49.628;10.850;2023-07-22T00:32:32;25.50;50.30
44863;DHT22;30597;49.628;10.850;2023-07-22T00:34:58;25.40;50.30
44863;DHT22;30597;49.628;10.850;2023-07-22T00:37:24;25.40;50.20
44863;DHT22;30597;49.628;10.850;2023-07-22T00:39:50;25.40;50.40
44863;DHT22;30597;49.628;10.850;2023-07-22T00:42:16;25.40;50.40
44863;DHT22;30597;49.628;10.850;2023-07-22T00:44:42;25.40;50.30
44863;DHT22;30597;49.628;10.850;2023-07-22T00:47:08;25.40;50.30
44863;DHT22;30597;49.628;10.850;2023-07-22T00:49:36;25.40;50.40
44863;DHT22;30597;49.628;10.850;2023-07-22T00:52:02;25.40;50.30
44863;DHT22;30597;49.628;10.850;2023-07-22T00:54:29;25.40;50.20
44863;DHT22;30597;49.628;10.850;2023-07-22T00:56:56;25.40;50.40
44863;DHT22;30597;49.628;10.850;2023-07-22T00:59:22;25.40;50.40
44863;DHT22;30597;49.628;10.850;2023-07-22T01:01:48;25.30;50.30
44863;DHT22;30597;49.628;10.850;2023-07-22T01:04:15;25.40;50.30
44863;DHT22;30597;49.628;10.850;2023-07-22T01:06:42;25.40;50.40
44863;DHT22;30597;49.628;10.850;2023-07-22T01:09:09;25.40;50.40
44863;DHT22;30597;49.628;10.850;2023-07-22T01:11:35;25.30;50.20
44863;DHT22;30597;49.628;10.850;2023-07-22T01:14:00;25.30;50.20
44863;DHT22;30597;49.628;10.850;2023-07-22T01:16:27;25.40;50.50
44863;DHT22;30597;49.628;10.850;2023-07-22T01:18:54;25.30;50.20
44863;DHT22;30597;49.628;10.850;2023-07-22T01:21:24;25.40;50.60
44863;DHT22;30597;49.628;10.850;2023-07-22T01:23:50;25.30;50.50
44863;DHT22;30597;49.628;10.850;2023-07-22T01:26:16;25.30;50.30
44863;DHT22;30597;49.628;10.850;2023-07-22T01:28:41;25.20;50.10
44863;DHT22;30597;49.628;10.850;2023-07-22T01:31:07;25.30;50.20
44863;DHT22;30597;49.628;10.850;2023-07-22T01:33:33;25.30;50.20
44863;DHT22;30597;49.628;10.850;2023-07-22T01:35:59;25.40;50.30
44863;DHT22;30597;49.628;10.850;2023-07-22T01:38:25;25.20;50.30
44863;DHT22;30597;49.628;10.850;2023-07-22T01:40:50;25.20;50.10
44863;DHT22;30597;49.628;10.850;2023-07-22T01:43:16;25.30;50.30
44863;DHT22;30597;49.628;10.850;2023-07-22T01:45:42;25.20;50.20
44863;DHT22;30597;49.628;10.850;2023-07-22T01:48:08;25.30;50.30
44863;DHT22;30597;49.628;10.850;2023-07-22T01:50:33;25.20;50.80
44863;DHT22;30597;49.628;10.850;2023-07-22T01:52:59;25.40;50.40
44863;DHT22;30597;49.628;10.850;2023-07-22T01:55:24;25.20;50.20
44863;DHT22;30597;49.628;10.850;2023-07-22T01:57:51;25.20;50.30
44863;DHT22;30597;49.628;10.850;2023-07-22T02:00:16;25.20;50.20
44863;DHT22;30597;49.628;10.850;2023-07-22T02:02:42;25.20;50.10
44863;DHT22;30597;49.628;10.850;2023-07-22T02:05:08;25.20;50.10
44863;DHT22;30597;49.628;10.850;2023-07-22T02:07:38;25.40;50.40
44863;DHT22;30597;49.628;10.850;2023-07-22T02:10:03;25.20;50.30
44863;DHT22;30597;49.628;10.850;2023-07-22T02:12:29;25.20;50.00
44863;DHT22;30597;49.628;10.850;2023-07-22T02:14:55;25.20;50.20
44863;DHT22;30597;49.628;10.850;2023-07-22T02:17:20;25.20;50.10
44863;DHT22;30597;49.628;10.850;2023-07-22T02:19:46;25.20;50.20
44863;DHT22;30597;49.628;10.850;2023-07-22T02:22:12;25.20;50.20
44863;DHT22;30597;49.628;10.850;2023-07-22T02:24:38;25.20;50.10
44863;DHT22;30597;49.628;10.850;2023-07-22T02:27:04;25.20;50.10
44863;DHT22;30597;49.628;10.850;2023-07-22T02:29:30;25.20;50.10
44863;DHT22;30597;49.628;10.850;2023-07-22T02:31:56;25.20;50.40
44863;DHT22;30597;49.628;10.850;2023-07-22T02:34:23;25.10;50.40
44863;DHT22;30597;49.628;10.850;2023-07-22T02:36:48;25.10;50.30
44863;DHT22;30597;49.628;10.850;2023-07-22T02:39:14;25.20;50.20
44863;DHT22;30597;49.628;10.850;2023-07-22T02:41:40;25.10;50.30
44863;DHT22;30597;49.628;10.850;2023-07-22T02:44:05;25.20;50.20
44863;DHT22;30597;49.628;10.850;2023-07-22T02:46:31;25.10;50.30
44863;DHT22;30597;49.628;10.850;2023-07-22T02:48:57;25.10;50.30
44863;DHT22;30597;49.628;10.850;2023-07-22T02:51:24;25.10;50.50
44863;DHT22;30597;49.628;10.850;2023-07-22T02:53:49;25.10;50.30
44863;DHT22;30597;49.628;10.850;2023-07-22T02:56:15;25.20;50.30
44863;DHT22;30597;49.628;10.850;2023-07-22T02:58:41;25.10;50.30
44863;DHT22;30597;49.628;10.850;2023-07-22T03:01:07;25.10;50.90
44863;DHT22;30597;49.628;10.850;2023-07-22T03:03:34;25.10;50.40
44863;DHT22;30597;49.628;10.850;2023-07-22T03:06:03;25.10;50.50
44863;DHT22;30597;49.628;10.850;2023-07-22T03:08:29;25.00;50.30
44863;DHT22;30597;49.628;10.850;2023-07-22T03:10:55;25.10;50.40
44863;DHT22;30597;49.628;10.850;2023-07-22T03:13:21;25.00;50.40
44863;DHT22;30597;49.628;10.850;2023-07-22T03:15:46;25.00;50.30
44863;DHT22;30597;49.628;10.850;2023-07-22T03:18:12;25.00;50.40
44863;DHT22;30597;49.628;10.850;2023-07-22T03:20:38;25.00;50.30
44863;DHT22;30597;49.628;10.850;2023-07-22T03:23:05;25.10;50.70
44863;DHT22;30597;49.628;10.850;2023-07-22T03:25:31;25.00;50.60
44863;DHT22;30597;49.628;10.850;2023-07-22T03:27:59;25.00;50.50
44863;DHT22;30597;49.628;10.850;2023-07-22T03:30:27;24.90;50.60
44863;DHT22;30597;49.628;10.850;2023-07-22T03:32:53;25.00;50.40
44863;DHT22;30597;49.628;10.850;2023-07-22T03:35:19;25.10;50.50
44863;DHT22;30597;49.628;10.850;2023-07-22T03:37:44;25.00;50.60
44863;DHT22;30597;49.628;10.850;2023-07-22T03:40:10;25.10;50.50
44863;DHT22;30597;49.628;10.850;2023-07-22T03:42:52;24.90;50.50
44863;DHT22;30597;49.628;10.850;2023-07-22T03:45:19;24.90;50.50
44863;DHT22;30597;49.628;10.850;2023-07-22T03:47:46;24.90;50.60
44863;DHT22;30597;49.628;10.850;2023-07-22T03:50:12;25.00;50.60
44863;DHT22;30597;49.628;10.850;2023-07-22T03:52:38;24.90;50.30
44863;DHT22;30597;49.628;10.850;2023-07-22T03:55:04;24.90;50.50
44863;DHT22;30597;49.628;10.850;2023-07-22T03:57:31;25.00;50.60
44863;DHT22;30597;49.628;10.850;2023-07-22T03:59:57;25.00;50.80
44863;DHT22;30597;49.628;10.850;2023-07-22T04:02:23;25.10;50.80
44863;DHT22;30597;49.628;10.850;2023-07-22T04:04:51;24.90;50.70
44863;DHT22;30597;49.628;10.850;2023-07-22T04:07:16;24.90;50.70
44863;DHT22;30597;49.628;10.850;2023-07-22T04:09:43;25.00;50.70
44863;DHT22;30597;49.628;10.850;2023-07-22T04:12:09;24.90;50.70
44863;DHT22;30597;49.628;10.850;2023-07-22T04:14:34;24.90;50.50
44863;DHT22;30597;49.628;10.850;2023-07-22T04:17:00;24.90;50.60
44863;DHT22;30597;49.628;10.850;2023-07-22T04:19:25;25.00;50.60
44863;DHT22;30597;49.628;10.850;2023-07-22T04:21:51;25.00;50.60
44863;DHT22;30597;49.628;10.850;2023-07-22T04:24:17;25.00;50.60
44863;DHT22;30597;49.628;10.850;2023-07-22T04:26:44;24.90;50.60
44863;DHT22;30597;49.628;10.850;2023-07-22T04:29:13;24.90;50.90
44863;DHT22;30597;49.628;10.850;2023-07-22T04:31:39;24.90;50.60
44863;DHT22;30597;49.628;10.850;2023-07-22T04:34:05;24.90;50.50
44863;DHT22;30597;49.628;10.850;2023-07-22T04:36:31;24.90;50.60
44863;DHT22;30597;49.628;10.850;2023-07-22T04:38:56;24.90;50.30
44863;DHT22;30597;49.628;10.850;2023-07-22T04:41:23;24.90;50.50
44863;DHT22;30597;49.628;10.850;2023-07-22T04:43:48;24.90;50.50
44863;DHT22;30597;49.628;10.850;2023-07-22T04:46:16;24.90;50.60
44863;DHT22;30597;49.628;10.850;2023-07-22T04:48:41;24.90;50.60
44863;DHT22;30597;49.628;10.850;2023-07-22T04:51:07;24.90;50.60
44863;DHT22;30597;49.628;10.850;2023-07-22T04:53:32;24.90;50.60
44863;DHT22;30597;49.628;10.850;2023-07-22T04:55:58;24.90;50.50
44863;DHT22;30597;49.628;10.850;2023-07-22T04:58:24;24.90;50.50
44863;DHT22;30597;49.628;10.850;2023-07-22T05:00:50;24.90;50.60
44863;DHT22;30597;49.628;10.850;2023-07-22T05:03:16;24.90;50.60
44863;DHT22;30597;49.628;10.850;2023-07-22T05:05:42;24.90;50.50
44863;DHT22;30597;49.628;10.850;2023-07-22T05:08:10;24.90;50.50
44863;DHT22;30597;49.628;10.850;2023-07-22T05:10:39;25.00;50.60
44863;DHT22;30597;49.628;10.850;2023-07-22T05:13:06;24.90;50.50
44863;DHT22;30597;49.628;10.850;2023-07-22T05:15:32;24.90;50.60
44863;DHT22;30597;49.628;10.850;2023-07-22T05:17:57;24.90;50.50
44863;DHT22;30597;49.628;10.850;2023-07-22T05:20:23;24.90;50.70
44863;DHT22;30597;49.628;10.850;2023-07-22T05:22:48;24.90;50.50
44863;DHT22;30597;49.628;10.850;2023-07-22T05:25:14;24.80;50.50
44863;DHT22;30597;49.628;10.850;2023-07-22T05:27:40;24.90;50.50
44863;DHT22;30597;49.628;10.850;2023-07-22T05:30:07;24.90;50.60
44863;DHT22;30597;49.628;10.850;2023-07-22T05:32:32;24.90;50.80
44863;DHT22;30597;49.628;10.850;2023-07-22T05:34:58;24.90;50.70
44863;DHT22;30597;49.628;10.850;2023-07-22T05:37:24;24.80;50.80
44863;DHT22;30597;49.628;10.850;2023-07-22T05:39:50;24.80;50.70
44863;DHT22;30597;49.628;10.850;2023-07-22T05:42:19;24.90;50.70
44863;DHT22;30597;49.628;10.850;2023-07-22T05:44:44;24.80;50.80
44863;DHT22;30597;49.628;10.850;2023-07-22T05:47:10;24.90;50.70
44863;DHT22;30597;49.628;10.850;2023-07-22T05:49:36;24.90;50.90
44863;DHT22;30597;49.628;10.850;2023-07-22T05:52:01;25.00;50.50
44863;DHT22;30597;49.628;10.850;2023-07-22T05:54:27;25.00;49.70
44863;DHT22;30597;49.628;10.850;2023-07-22T05:56:52;24.90;49.60
44863;DHT22;30597;49.628;10.850;2023-07-22T05:59:18;24.90;50.00
44863;DHT22;30597;49.628;10.850;2023-07-22T06:01:43;24.90;49.80
44863;DHT22;30597;49.628;10.850;2023-07-22T06:04:09;24.90;49.70
44863;DHT22;30597;49.628;10.850;2023-07-22T06:06:35;24.90;50.10
44863;DHT22;30597;49.628;10.850;2023-07-22T06:09:01;24.90;49.90
44863;DHT22;30597;49.628;10.850;2023-07-22T06:11:27;25.00;50.10
44863;DHT22;30597;49.628;10.850;2023-07-22T06:13:54;24.90;50.10
44863;DHT22;30597;49.628;10.850;2023-07-22T06:16:19;25.00;50.00
44863;DHT22;30597;49.628;10.850;2023-07-22T06:18:45;25.00;50.10
44863;DHT22;30597;49.628;10.850;2023-07-22T06:21:10;25.20;50.00
44863;DHT22;30597;49.628;10.850;2023-07-22T06:23:36;25.10;50.00
44863;DHT22;30597;49.628;10.850;2023-07-22T06:26:02;25.20;50.10
44863;DHT22;30597;49.628;10.850;2023-07-22T06:28:28;25.20;50.00
44863;DHT22;30597;49.628;10.850;2023-07-22T06:30:53;25.20;49.80
44863;DHT22;30597;49.628;10.850;2023-07-22T06:33:19;25.20;50.00
44863;DHT22;30597;49.628;10.850;2023-07-22T06:35:44;25.20;49.90
44863;DHT22;30597;49.628;10.850;2023-07-22T06:38:10;25.30;49.80
44863;DHT22;30597;49.628;10.850;2023-07-22T06:40:35;25.30;50.50
44863;DHT22;30597;49.628;10.850;2023-07-22T06:43:01;25.30;49.90
44863;DHT22;30597;49.628;10.850;2023-07-22T06:45:26;25.30;49.70
44863;DHT22;30597;49.628;10.850;2023-07-22T06:47:52;25.30;49.80
44863;DHT22;30597;49.628;10.850;2023-07-22T06:50:17;25.30;49.80
44863;DHT22;30597;49.628;10.850;2023-07-22T06:52:43;25.30;49.70
44863;DHT22;30597;49.628;10.850;2023-07-22T06:55:08;25.30;49.70
44863;DHT22;30597;49.628;10.850;2023-07-22T06:57:34;25.40;49.70
44863;DHT22;30597;49.628;10.850;2023-07-22T07:00:00;25.30;49.80
44863;DHT22;30597;49.628;10.850;2023-07-22T07:02:26;25.40;49.70
44863;DHT22;30597;49.628;10.850;2023-07-22T07:04:52;25.40;49.90
44863;DHT22;30597;49.628;10.850;2023-07-22T07:07:17;25.40;49.60
44863;DHT22;30597;49.628;10.850;2023-07-22T07:09:44;25.40;49.10
44863;DHT22;30597;49.628;10.850;2023-07-22T07:12:09;25.50;49.60
44863;DHT22;30597;49.628;10.850;2023-07-22T07:14:35;25.40;49.50
44863;DHT22;30597;49.628;10.850;2023-07-22T07:17:01;25.40;49.50
44863;DHT22;30597;49.628;10.850;2023-07-22T07:19:27;25.50;49.80
44863;DHT22;30597;49.628;10.850;2023-07-22T07:21:53;25.60;49.70
44863;DHT22;30597;49.628;10.850;2023-07-22T07:24:19;25.60;49.60
44863;DHT22;30597;49.628;10.850;2023-07-22T07:26:45;25.50;49.80
44863;DHT22;30597;49.628;10.850;2023-07-22T07:29:11;25.40;49.70
44863;DHT22;30597;49.628;10.850;2023-07-22T07:31:38;25.40;49.80
44863;DHT22;30597;49.628;10.850;2023-07-22T07:34:03;25.50;49.80
44863;DHT22;30597;49.628;10.850;2023-07-22T07:36:29;25.50;49.70
44863;DHT22;30597;49.628;10.850;2023-07-22T07:38:55;25.50;49.70
44863;DHT22;30597;49.628;10.850;2023-07-22T07:41:21;25.50;49.60
44863;DHT22;30597;49.628;10.850;2023-07-22T07:43:46;25.50;49.60
44863;DHT22;30597;49.628;10.850;2023-07-22T07:48:37;25.40;49.60
44863;DHT22;30597;49.628;10.850;2023-07-22T07:51:03;25.50;49.50
44863;DHT22;30597;49.628;10.850;2023-07-22T07:53:29;25.50;49.50
44863;DHT22;30597;49.628;10.850;2023-07-22T07:55:54;25.40;49.50
44863;DHT22;30597;49.628;10.850;2023-07-22T07:58:20;25.50;49.40
44863;DHT22;30597;49.628;10.850;2023-07-22T08:00:45;25.50;49.40
44863;DHT22;30597;49.628;10.850;2023-07-22T08:03:11;25.40;49.30
44863;DHT22;30597;49.628;10.850;2023-07-22T08:05:36;25.50;49.30
44863;DHT22;30597;49.628;10.850;2023-07-22T08:08:02;25.40;49.10
44863;DHT22;30597;49.628;10.850;2023-07-22T08:10:29;25.30;49.00
44863;DHT22;30597;49.628;10.850;2023-07-22T08:12:54;25.30;49.10
44863;DHT22;30597;49.628;10.850;2023-07-22T08:15:20;25.30;49.10
44863;DHT22;30597;49.628;10.850;2023-07-22T08:17:45;25.30;49.00
44863;DHT22;30597;49.628;10.850;2023-07-22T08:20:11;25.30;49.00
44863;DHT22;30597;49.628;10.850;2023-07-22T08:22:36;25.30;49.00
44863;DHT22;30597;49.628;10.850;2023-07-22T08:25:02;25.30;48.50
44863;DHT22;30597;49.628;10.850;2023-07-22T08:27:28;25.30;49.00
44863;DHT22;30597;49.628;10.850;2023-07-22T08:29:54;25.50;49.20
44863;DHT22;30597;49.628;10.850;2023-07-22T08:32:19;25.30;49.00
44863;DHT22;30597;49.628;10.850;2023-07-22T08:34:45;25.30;49.60
44863;DHT22;30597;49.628;10.850;2023-07-22T08:37:11;25.30;48.50
44863;DHT22;30597;49.628;10.850;2023-07-22T08:39:37;25.30;48.80
44863;DHT22;30597;49.628;10.850;2023-07-22T08:42:04;25.30;48.90
44863;DHT22;30597;49.628;10.850;2023-07-22T08:44:32;25.30;48.90
44863;DHT22;30597;49.628;10.850;2023-07-22T08:47:02;25.30;48.90
44863;DHT22;30597;49.628;10.850;2023-07-22T08:49:30;25.30;48.70
44863;DHT22;30597;49.628;10.850;2023-07-22T08:51:56;25.30;48.50
44863;DHT22;30597;49.628;10.850;2023-07-22T08:54:25;25.30;48.70
44863;DHT22;30597;49.628;10.850;2023-07-22T08:56:51;25.40;48.60
44863;DHT22;30597;49.628;10.850;2023-07-22T08:59:20;25.40;48.30
44863;DHT22;30597;49.628;10.850;2023-07-22T09:01:48;25.40;48.30
44863;DHT22;30597;49.628;10.850;2023-07-22T09:04:14;25.50;48.40
44863;DHT22;30597;49.628;10.850;2023-07-22T09:06:39;25.50;48.30
44863;DHT22;30597;49.628;10.850;2023-07-22T09:09:07;25.40;48.50
44863;DHT22;30597;49.628;10.850;2023-07-22T09:11:34;25.50;48.80
44863;DHT22;30597;49.628;10.850;2023-07-22T09:14:02;25.40;48.60
44863;DHT22;30597;49.628;10.850;2023-07-22T09:16:28;25.50;48.90
44863;DHT22;30597;49.628;10.850;2023-07-22T09:18:57;25.40;48.80
44863;DHT22;30597;49.628;10.850;2023-07-22T09:21:23;25.50;48.90
44863;DHT22;30597;49.628;10.850;2023-07-22T09:23:48;25.50;48.80
44863;DHT22;30597;49.628;10.850;2023-07-22T09:26:16;25.50;48.70
44863;DHT22;30597;49.628;10.850;2023-07-22T09:31:19;25.50;49.10
44863;DHT22;30597;49.628;10.850;2023-07-22T09:33:45;25.50;48.90
44863;DHT22;30597;49.628;10.850;2023-07-22T09:36:11;25.50;48.70
44863;DHT22;30597;49.628;10.850;2023-07-22T09:38:37;25.50;48.80
44863;DHT22;30597;49.628;10.850;2023-07-22T09:41:03;25.60;48.50
44863;DHT22;30597;49.628;10.850;2023-07-22T09:43:29;25.60;48.70
44863;DHT22;30597;49.628;10.850;2023-07-22T09:45:55;25.60;48.60
44863;DHT22;30597;49.628;10.850;2023-07-22T09:48:21;25.60;48.60
44863;DHT22;30597;49.628;10.850;2023-07-22T09:50:56;25.60;48.50
44863;DHT22;30597;49.628;10.850;2023-07-22T09:53:22;25.60;48.40
44863;DHT22;30597;49.628;10.850;2023-07-22T09:55:48;25.60;48.20
44863;DHT22;30597;49.628;10.850;2023-07-22T09:58:13;25.60;48.10
44863;DHT22;30597;49.628;10.850;2023-07-22T10:00:44;25.80;48.30
44863;DHT22;30597;49.628;10.850;2023-07-22T10:03:11;25.70;48.30
44863;DHT22;30597;49.628;10.850;2023-07-22T10:05:39;25.70;48.20
44863;DHT22;30597;49.628;10.850;2023-07-22T10:08:07;25.70;48.30
44863;DHT22;30597;49.628;10.850;2023-07-22T10:10:43;25.70;48.10
44863;DHT22;30597;49.628;10.850;2023-07-22T10:13:10;25.80;47.90
44863;DHT22;30597;49.628;10.850;2023-07-22T10:15:36;25.80;47.70
44863;DHT22;30597;49.628;10.850;2023-07-22T10:18:03;25.80;47.50
44863;DHT22;30597;49.628;10.850;2023-07-22T10:20:30;25.80;47.60
44863;DHT22;30597;49.628;10.850;2023-07-22T10:23:01;25.80;47.40
44863;DHT22;30597;49.628;10.850;2023-07-22T10:25:26;25.80;47.40
44863;DHT22;30597;49.628;10.850;2023-07-22T10:27:52;25.80;47.20
44863;DHT22;30597;49.628;10.850;2023-07-22T10:30:18;25.80;47.10
44863;DHT22;30597;49.628;10.850;2023-07-22T10:32:49;25.80;47.10
44863;DHT22;30597;49.628;10.850;2023-07-22T10:38:14;25.80;47.10
44863;DHT22;30597;49.628;10.850;2023-07-22T10:40:47;25.80;47.20
44863;DHT22;30597;49.628;10.850;2023-07-22T10:43:15;25.80;47.20
44863;DHT22;30597;49.628;10.850;2023-07-22T10:45:48;25.80;47.30
44863;DHT22;30597;49.628;10.850;2023-07-22T10:48:14;25.90;47.10
44863;DHT22;30597;49.628;10.850;2023-07-22T10:50:50;25.90;45.90
44863;DHT22;30597;49.628;10.850;2023-07-22T10:56:12;25.80;45.30
44863;DHT22;30597;49.628;10.850;2023-07-22T11:04:05;25.80;45.90
44863;DHT22;30597;49.628;10.850;2023-07-22T11:06:31;25.80;46.60
44863;DHT22;30597;49.628;10.850;2023-07-22T11:08:56;25.90;45.80
44863;DHT22;30597;49.628;10.850;2023-07-22T11:11:39;25.80;45.70
44863;DHT22;30597;49.628;10.850;2023-07-22T11:14:20;25.80;45.80
44863;DHT22;30597;49.628;10.850;2023-07-22T11:16:47;25.90;45.90
44863;DHT22;30597;49.628;10.850;2023-07-22T11:19:18;25.90;45.90
44863;DHT22;30597;49.628;10.850;2023-07-22T11:21:45;26.00;46.10
44863;DHT22;30597;49.628;10.850;2023-07-22T11:24:11;25.90;46.00
44863;DHT22;30597;49.628;10.850;2023-07-22T11:26:38;25.90;45.90
44863;DHT22;30597;49.628;10.850;2023-07-22T11:29:05;26.10;46.10
44863;DHT22;30597;49.628;10.850;2023-07-22T11:31:32;26.00;46.00
44863;DHT22;30597;49.628;10.850;2023-07-22T11:33:58;26.00;46.00
44863;DHT22;30597;49.628;10.850;2023-07-22T11:36:24;26.00;45.80
44863;DHT22;30597;49.628;10.850;2023-07-22T11:38:50;26.00;45.90
44863;DHT22;30597;49.628;10.850;2023-07-22T11:41:15;26.00;45.70
44863;DHT22;30597;49.628;10.850;2023-07-22T11:43:42;26.10;46.10
44863;DHT22;30597;49.628;10.850;2023-07-22T11:46:08;26.00;45.90
44863;DHT22;30597;49.628;10.850;2023-07-22T11:48:33;26.10;46.00
44863;DHT22;30597;49.628;10.850;2023-07-22T11:50:59;26.10;45.90
44863;DHT22;30597;49.628;10.850;2023-07-22T11:53:28;26.10;46.00
44863;DHT22;30597;49.628;10.850;2023-07-22T11:55:57;26.10;45.70
44863;DHT22;30597;49.628;10.850;2023-07-22T11:58:27;26.10;45.70
44863;DHT22;30597;49.628;10.850;2023-07-22T12:01:07;26.10;45.70
44863;DHT22;30597;49.628;10.850;2023-07-22T12:03:35;26.10;46.00
44863;DHT22;30597;49.628;10.850;2023-07-22T12:06:02;26.10;45.80
44863;DHT22;30597;49.628;10.850;2023-07-22T12:08:28;26.10;46.00
44863;DHT22;30597;49.628;10.850;2023-07-22T12:11:03;26.10;45.60
44863;DHT22;30597;49.628;10.850;2023-07-22T12:13:35;26.10;45.70
44863;DHT22;30597;49.628;10.850;2023-07-22T12:16:02;26.10;45.80
44863;DHT22;30597;49.628;10.850;2023-07-22T12:18:28;26.10;45.60
44863;DHT22;30597;49.628;10.850;2023-07-22T12:21:05;26.20;45.70
44863;DHT22;30597;49.628;10.850;2023-07-22T12:23:31;26.20;45.80
44863;DHT22;30597;49.628;10.850;2023-07-22T12:25:57;26.10;45.90
44863;DHT22;30597;49.628;10.850;2023-07-22T12:28:22;26.20;45.90
44863;DHT22;30597;49.628;10.850;2023-07-22T12:30:49;26.20;45.90
44863;DHT22;30597;49.628;10.850;2023-07-22T12:33:14;26.20;46.10
44863;DHT22;30597;49.628;10.850;2023-07-22T12:35:40;26.20;46.20
44863;DHT22;30597;49.628;10.850;2023-07-22T12:38:05;26.20;46.30
44863;DHT22;30597;49.628;10.850;2023-07-22T12:40:31;26.30;46.30
44863;DHT22;30597;49.628;10.850;2023-07-22T12:42:57;26.30;46.20
44863;DHT22;30597;49.628;10.850;2023-07-22T12:45:22;26.30;46.50
44863;DHT22;30597;49.628;10.850;2023-07-22T12:47:48;26.20;47.00
44863;DHT22;30597;49.628;10.850;2023-07-22T12:50:14;26.20;46.60
44863;DHT22;30597;49.628;10.850;2023-07-22T12:52:39;26.20;46.20
44863;DHT22;30597;49.628;10.850;2023-07-22T12:55:05;26.30;46.30
44863;DHT22;30597;49.628;10.850;2023-07-22T12:57:31;26.30;46.30
44863;DHT22;30597;49.628;10.850;2023-07-22T12:59:56;26.30;46.00
44863;DHT22;30597;49.628;10.850;2023-07-22T13:02:22;26.30;46.10
44863;DHT22;30597;49.628;10.850;2023-07-22T13:04:48;26.30;46.00
44863;DHT22;30597;49.628;10.850;2023-07-22T13:07:13;26.20;45.90
44863;DHT22;30597;49.628;10.850;2023-07-22T13:09:39;26.30;46.10
44863;DHT22;30597;49.628;10.850;2023-07-22T13:12:05;26.30;46.40
44863;DHT22;30597;49.628;10.850;2023-07-22T13:14:31;26.20;46.30
44863;DHT22;30597;49.628;10.850;2023-07-22T13:16:57;26.20;46.50
44863;DHT22;30597;49.628;10.850;2023-07-22T13:19:22;26.30;46.50
44863;DHT22;30597;49.628;10.850;2023-07-22T13:21:48;26.30;46.50
44863;DHT22;30597;49.628;10.850;2023-07-22T13:24:13;26.30;46.30
44863;DHT22;30597;49.628;10.850;2023-07-22T13:26:39;26.40;46.40
44863;DHT22;30597;49.628;10.850;2023-07-22T13:29:05;26.30;46.30
44863;DHT22;30597;49.628;10.850;2023-07-22T13:31:30;26.40;46.40
44863;DHT22;30597;49.628;10.850;2023-07-22T13:33:56;26.40;46.50
44863;DHT22;30597;49.628;10.850;2023-07-22T13:36:22;26.40;46.50
44863;DHT22;30597;49.628;10.850;2023-07-22T13:38:47;26.40;46.40
44863;DHT22;30597;49.628;10.850;2023-07-22T13:41:13;26.40;46.30
44863;DHT22;30597;49.628;10.850;2023-07-22T13:43:38;26.60;46.60
44863;DHT22;30597;49.628;10.850;2023-07-22T13:46:04;26.60;46.50
44863;DHT22;30597;49.628;10.850;2023-07-22T13:48:29;26.50;46.60
44863;DHT22;30597;49.628;10.850;2023-07-22T13:50:55;26.50;46.50
44863;DHT22;30597;49.628;10.850;2023-07-22T13:53:20;26.60;46.50
44863;DHT22;30597;49.628;10.850;2023-07-22T13:55:46;26.60;46.60
44863;DHT22;30597;49.628;10.850;2023-07-22T13:58:11;26.60;46.60
44863;DHT22;30597;49.628;10.850;2023-07-22T14:00:37;26.60;46.60
44863;DHT22;30597;49.628;10.850;2023-07-22T14:03:05;26.60;46.30
44863;DHT22;30597;49.628;10.850;2023-07-22T14:05:30;26.60;46.50
44863;DHT22;30597;49.628;10.850;2023-07-22T14:07:56;26.60;46.50
44863;DHT22;30597;49.628;10.850;2023-07-22T14:10:22;26.60;46.40
44863;DHT22;30597;49.628;10.850;2023-07-22T14:12:47;26.60;46.30
44863;DHT22;30597;49.628;10.850;2023-07-22T14:15:13;26.50;46.30
44863;DHT22;30597;49.628;10.850;2023-07-22T14:17:38;26.50;46.30
44863;DHT22;30597;49.628;10.850;2023-07-22T14:20:04;26.60;46.40
44863;DHT22;30597;49.628;10.850;2023-07-22T14:22:30;26.60;46.20
44863;DHT22;30597;49.628;10.850;2023-07-22T14:24:56;26.70;46.30
44863;DHT22;30597;49.628;10.850;2023-07-22T14:27:21;26.60;46.20
44863;DHT22;30597;49.628;10.850;2023-07-22T14:29:47;26.60;46.10
44863;DHT22;30597;49.628;10.850;2023-07-22T14:32:12;26.60;46.00
44863;DHT22;30597;49.628;10.850;2023-07-22T14:34:38;26.70;46.00
44863;DHT22;30597;49.628;10.850;2023-07-22T14:37:04;26.80;46.00
44863;DHT22;30597;49.628;10.850;2023-07-22T14:39:30;26.60;45.80
44863;DHT22;30597;49.628;10.850;2023-07-22T14:41:55;26.60;45.80
44863;DHT22;30597;49.628;10.850;2023-07-22T14:44:21;26.60;45.80
44863;DHT22;30597;49.628;10.850;2023-07-22T14:46:46;26.60;45.60
44863;DHT22;30597;49.628;10.850;2023-07-22T14:49:12;26.60;45.80
44863;DHT22;30597;49.628;10.850;2023-07-22T14:51:38;26.60;45.70
44863;DHT22;30597;49.628;10.850;2023-07-22T14:54:04;26.60;45.60
44863;DHT22;30597;49.628;10.850;2023-07-22T14:56:29;26.60;45.70
44863;DHT22;30597;49.628;10.850;2023-07-22T14:58:55;26.70;45.70
44863;DHT22;30597;49.628;10.850;2023-07-22T15:01:21;26.60;45.50
44863;DHT22;30597;49.628;10.850;2023-07-22T15:03:47;26.60;45.50
44863;DHT22;30597;49.628;10.850;2023-07-22T15:06:13;26.60;45.20
44863;DHT22;30597;49.628;10.850;2023-07-22T15:08:38;26.70;45.10
44863;DHT22;30597;49.628;10.850;2023-07-22T15:11:04;26.60;45.10
44863;DHT22;30597;49.628;10.850;2023-07-22T15:13:30;26.60;44.70
44863;DHT22;30597;49.628;10.850;2023-07-22T15:15:56;26.60;44.90
44863;DHT22;30597;49.628;10.850;2023-07-22T15:18:22;26.50;45.00
44863;DHT22;30597;49.628;10.850;2023-07-22T15:20:50;26.50;45.30
44863;DHT22;30597;49.628;10.850;2023-07-22T15:23:16;26.60;45.20
44863;DHT22;30597;49.628;10.850;2023-07-22T15:25:45;26.60;45.30